Time;durP1;ratioP1;P1;durP2;ratioP2;P2;SDS_P1;SDS_P2;PMS_P1;PMS_P2;Temp;Humidity;BMP_temperature;BMP_pressure;BME280_temperature;BME280_humidity;BME280_pressure;Samples;Min_cycle;Max_cycle;Signal;HPM_P1;HPM_P2
2022/02/10 00:22:08;;;;;;;6.10;3.60;;;;;;;5.33;80.50;99090.45;104720;1277;76010;-22
2022/02/10 00:38:21;;;;;;;5.10;3.90;;;;;;;5.43;78.86;99076.46;104883;1274;74225;-22
2022/02/10 00:40:50;;;;;;;4.60;3.40;;;;;;;5.19;79.71;99079.24;104887;1274;62066;-22
2022/02/10 00:43:18;;;;;;;5.50;3.50;;;;;;;4.93;80.90;99077.63;104867;1274;61116;-22
2022/02/10 00:45:47;;;;;;;4.90;3.60;;;;;;;4.97;80.76;99079.27;104719;1274;73923;-22
2022/02/10 00:48:16;;;;;;;5.70;4.70;;;;;;;5.36;78.93;99078.73;104933;1274;75124;-22
2022/02/10 00:50:45;;;;;;;5.50;3.90;;;;;;;5.29;78.87;99076.25;104907;1274;74903;-23
2022/02/10 00:53:22;;;;;;;4.50;3.50;;;;;;;5.10;79.48;99074.38;104770;1274;61047;-24
2022/02/10 00:55:50;;;;;;;6.60;4.30;;;;;;;4.93;80.19;99073.51;104736;1274;61144;-24
2022/02/10 00:58:31;;;;;;;3.80;3.00;;;;;;;4.80;80.58;99080.92;104788;1274;74797;-24
2022/02/10 01:30:44;;;;;;;4.30;2.90;;;;;;;5.21;78.92;99078.91;104786;1274;72803;-22
2022/02/10 01:33:13;;;;;;;5.70;3.40;;;;;;;5.28;78.39;99074.08;104660;1274;61083;-23
2022/02/10 01:35:41;;;;;;;6.40;3.80;;;;;;;5.21;78.48;99081.17;104793;1274;61129;-23
2022/02/10 01:38:10;;;;;;;4.50;3.50;;;;;;;4.94;79.26;99076.20;104784;1275;74635;-22
2022/02/10 02:05:35;;;;;;;4.00;2.70;;;;;;;4.89;78.20;99061.83;104738;1274;74882;-23
2022/02/10 02:08:06;;;;;;;3.90;2.70;;;;;;;4.63;79.30;99056.45;104740;1274;73168;-23
2022/02/10 02:10:35;;;;;;;4.80;2.70;;;;;;;4.51;79.78;99047.15;104751;1274;73599;-23
2022/02/10 02:13:04;;;;;;;3.10;2.30;;;;;;;4.60;79.73;99044.91;104765;1274;62847;-23
2022/02/10 02:15:33;;;;;;;5.40;3.20;;;;;;;5.05;77.92;99047.02;104927;1274;61041;-23
2022/02/10 02:18:01;;;;;;;2.80;2.20;;;;;;;5.10;77.47;99042.77;104875;1274;74658;-23
2022/02/10 02:20:30;;;;;;;4.40;3.20;;;;;;;5.03;77.34;99038.31;104904;1274;74962;-23
2022/02/10 02:22:59;;;;;;;3.80;2.80;;;;;;;4.88;77.77;99041.61;104861;1274;74663;-23
2022/02/10 02:25:28;;;;;;;2.10;1.70;;;;;;;4.72;78.43;99039.59;104877;1274;61137;-23
2022/02/10 02:27:58;;;;;;;2.50;2.10;;;;;;;4.90;77.85;99042.52;104896;1274;61140;-22
2022/02/10 03:07:01;;;;;;;2.90;2.40;;;;;;;5.00;77.02;99063.45;104857;1274;61147;-23
2022/02/10 03:09:38;;;;;;;4.40;2.30;;;;;;;4.83;77.55;99061.13;104700;1274;61165;-22
2022/02/10 03:12:09;;;;;;;3.20;2.20;;;;;;;4.74;78.16;99060.95;104604;1275;74339;-23
2022/02/10 03:14:45;;;;;;;3.40;2.20;;;;;;;5.11;76.78;99066.44;104648;1274;75876;-22
2022/02/10 03:17:40;;;;;;;4.00;2.60;;;;;;;5.26;75.87;99062.14;104720;1274;73403;-23
2022/02/10 04:15:09;;;;;;;4.20;3.40;;;;;;;4.72;78.67;99060.92;104848;1274;61717;-23
2022/02/10 04:28:45;;;;;;;4.60;3.10;;;;;;;4.56;79.38;99081.05;104878;1274;62955;-22
2022/02/10 04:31:52;;;;;;;4.40;3.40;;;;;;;4.97;77.82;99084.80;104731;1274;61083;-22
2022/02/10 04:56:38;;;;;;;5.20;3.60;;;;;;;4.26;81.66;99099.23;104669;1274;61933;-22
2022/02/10 05:02:00;;;;;;;5.90;3.90;;;;;;;4.68;80.38;99106.38;104909;1274;74493;-22
2022/02/10 05:31:32;;;;;;;10.00;6.30;;;;;;;4.44;81.84;99144.30;104890;1274;75408;-22
2022/02/10 05:33:43;;;;;;;7.00;5.00;;;;;;;4.24;82.96;99143.98;104843;1274;77527;-22
2022/02/10 05:35:51;;;;;;;6.70;4.10;;;;;;;3.95;84.66;99149.98;104792;1274;73179;-22
2022/02/10 05:38:30;;;;;;;5.70;3.40;;;;;;;4.35;83.48;99138.27;104727;1274;61735;-22
2022/02/10 05:41:46;;;;;;;8.50;5.20;;;;;;;4.51;82.55;99149.77;104894;1274;61122;-22
2022/02/10 05:44:00;;;;;;;7.50;5.40;;;;;;;4.24;83.86;99149.34;104834;1274;75345;-22
2022/02/10 05:54:59;;;;;;;8.00;5.40;;;;;;;4.47;82.88;99157.21;104474;1282;60997;-22
2022/02/10 06:48:07;;;;;;;4.90;3.30;;;;;;;4.58;82.82;99187.59;104644;1277;61128;-23
2022/02/10 06:53:16;;;;;;;6.90;4.50;;;;;;;4.21;84.15;99186.78;104828;1276;76017;-23
2022/02/10 07:46:52;;;;;;;7.80;4.70;;;;;;;4.74;82.91;99187.92;104829;1277;61088;-23
2022/02/10 08:04:37;;;;;;;7.50;4.90;;;;;;;5.33;80.39;99209.27;104869;1274;75969;-24
2022/02/10 08:55:14;;;;;;;7.10;3.80;;;;;;;5.20;81.82;99219.94;104724;1274;61031;-25
2022/02/10 08:58:22;;;;;;;8.40;5.00;;;;;;;5.65;80.07;99223.75;104821;1275;74625;-24
2022/02/10 09:01:17;;;;;;;7.60;4.60;;;;;;;5.44;80.31;99226.33;104874;1274;75912;-24
2022/02/10 09:03:51;;;;;;;9.70;6.30;;;;;;;5.37;80.45;99230.67;104838;1274;72922;-24
2022/02/10 09:20:09;;;;;;;7.70;5.40;;;;;;;4.93;81.98;99214.73;104881;1274;60968;-24
2022/02/10 10:04:10;;;;;;;8.20;4.90;;;;;;;5.89;78.81;99190.66;104762;1274;61140;-24
2022/02/10 10:13:15;;;;;;;12.10;5.60;;;;;;;5.84;78.34;99192.87;104694;1274;73502;-23
2022/02/10 10:21:34;;;;;;;8.70;5.50;;;;;;;5.83;78.55;99169.16;104766;1274;75357;-24
2022/02/10 10:57:46;;;;;;;8.50;6.00;;;;;;;5.62;78.41;99180.36;104090;1283;61263;-23
2022/02/10 11:37:03;;;;;;;8.30;6.10;;;;;;;5.66;77.69;99155.48;104878;1274;74373;-24
2022/02/10 11:39:42;;;;;;;13.40;8.00;;;;;;;5.58;78.05;99161.02;104888;1274;61814;-23
2022/02/10 11:42:38;;;;;;;8.70;4.70;;;;;;;5.41;78.31;99157.64;104727;1277;61854;-24
2022/02/10 11:59:36;;;;;;;6.50;4.50;;;;;;;5.13;79.79;99150.47;104772;1274;75955;-22
2022/02/10 12:32:26;;;;;;;6.10;4.60;;;;;;;5.94;77.02;99149.73;104883;1274;75986;-22
2022/02/10 12:38:07;;;;;;;9.00;5.50;;;;;;;6.60;74.71;99147.73;104731;1274;62612;-22
2022/02/10 13:49:44;;;;;;;8.50;5.60;;;;;;;6.60;73.92;99127.39;104896;1274;61143;-22
2022/02/10 14:11:46;;;;;;;8.00;5.80;;;;;;;6.46;74.21;99134.66;104911;1274;74456;-22
2022/02/10 14:14:09;;;;;;;7.80;5.90;;;;;;;6.26;74.88;99127.64;104855;1274;73527;-23
2022/02/10 14:16:43;;;;;;;7.50;5.70;;;;;;;6.08;75.58;99123.75;104683;1274;61193;-24
2022/02/10 14:19:38;;;;;;;6.80;4.60;;;;;;;6.00;76.00;99126.25;104762;1274;61808;-24
2022/02/10 14:22:21;;;;;;;8.30;4.60;;;;;;;6.62;73.77;99125.21;104917;1274;75290;-23
2022/02/10 14:27:39;;;;;;;7.30;4.90;;;;;;;7.04;72.00;99130.81;104599;1274;74447;-22
2022/02/10 14:30:08;;;;;;;9.00;5.10;;;;;;;6.86;72.34;99128.70;104694;1274;61772;-22
2022/02/10 14:32:42;;;;;;;8.60;5.00;;;;;;;6.61;72.93;99126.66;104616;1275;62069;-22
2022/02/10 14:35:23;;;;;;;;;;;;;;;6.44;73.47;99133.42;104778;1274;74414;-22
2022/02/10 15:10:39;;;;;;;6.50;4.00;;;;;;;6.62;73.63;99122.98;104746;1274;62415;-22
2022/02/10 15:33:38;;;;;;;7.30;5.20;;;;;;;5.59;75.43;99117.02;104769;1274;75172;-25
2022/02/10 15:55:32;;;;;;;9.30;6.10;;;;;;;5.04;77.50;99112.95;105054;1274;62054;-24
2022/02/10 16:17:25;;;;;;;5.20;3.50;;;;;;;5.68;75.30;99096.34;104672;1274;74877;-23
2022/02/10 16:19:54;;;;;;;10.30;6.40;;;;;;;5.53;75.47;99091.54;105019;1274;62182;-23
2022/02/10 16:22:26;;;;;;;7.40;4.70;;;;;;;5.32;75.90;99098.65;105119;1274;61080;-23
2022/02/10 16:25:02;;;;;;;7.80;5.50;;;;;;;5.09;76.51;99090.98;104899;1274;75734;-23
2022/02/10 16:27:33;;;;;;;6.10;4.50;;;;;;;4.93;77.36;99089.85;104691;1274;74992;-23
2022/02/10 16:30:11;;;;;;;6.80;4.90;;;;;;;5.34;77.01;99090.05;105024;1274;74648;-23
2022/02/10 16:32:46;;;;;;;8.40;5.40;;;;;;;5.70;75.45;99087.61;104850;1274;62068;-23
2022/02/10 16:35:19;;;;;;;;;;;;;;;5.62;75.36;99090.27;105114;1274;61070;-23
2022/02/10 16:37:52;;;;;;;9.60;6.00;;;;;;;5.36;76.07;99082.73;105081;1274;75485;-23
2022/02/10 16:40:26;;;;;;;9.40;5.80;;;;;;;5.11;76.81;99084.17;105044;1274;76012;-23
2022/02/10 16:42:59;;;;;;;6.70;3.60;;;;;;;4.87;77.60;99082.77;105100;1271;74427;-23
2022/02/10 16:45:33;;;;;;;5.60;3.50;;;;;;;5.05;77.86;99080.88;104914;1271;61045;-23
2022/02/10 16:48:07;;;;;;;9.70;5.20;;;;;;;5.47;76.39;99076.90;105114;1272;62231;-23
2022/02/10 16:50:43;;;;;;;4.40;3.40;;;;;;;5.38;76.26;99073.10;105092;1271;75386;-23
2022/02/10 16:53:21;;;;;;;7.90;5.30;;;;;;;5.20;76.98;99074.50;105163;1271;75970;-23
2022/02/10 16:55:59;;;;;;;8.20;5.20;;;;;;;5.03;77.26;99080.66;105096;1271;74429;-23
2022/02/10 16:58:56;;;;;;;6.10;4.00;;;;;;;4.79;78.09;99077.54;105099;1271;61827;-25
2022/02/10 17:02:09;;;;;;;5.30;3.60;;;;;;;5.01;78.72;99073.05;104763;1273;61110;-24
2022/02/10 17:19:11;;;;;;;11.00;5.40;;;;;;;5.48;76.74;99078.20;105148;1271;73388;-23
2022/02/10 17:54:11;;;;;;;9.00;5.10;;;;;;;4.74;77.07;99073.56;105052;1274;61075;-22
2022/02/10 17:56:40;;;;;;;9.50;5.90;;;;;;;4.46;77.92;99074.92;105103;1271;61114;-23
2022/02/10 17:59:08;;;;;;;8.20;6.20;;;;;;;4.30;78.20;99075.64;105078;1274;75873;-23
2022/02/10 18:01:37;;;;;;;7.30;4.80;;;;;;;4.20;79.07;99074.10;105010;1271;75937;-22
2022/02/10 18:04:10;;;;;;;;;;;;;;;4.76;77.75;99073.95;105110;1271;74377;-23
2022/02/10 18:06:42;;;;;;;8.90;5.90;;;;;;;4.93;76.77;99075.38;105171;1271;62181;-23
2022/02/10 18:14:31;;;;;;;6.70;4.90;;;;;;;4.45;77.50;99081.33;105131;1271;75928;-22
2022/02/10 18:17:30;;;;;;;7.70;5.00;;;;;;;4.34;78.13;99072.64;105129;1271;74268;-23
2022/02/10 18:20:08;;;;;;;13.30;6.10;;;;;;;4.84;77.15;99068.52;105149;1271;61997;-22
2022/02/10 18:22:46;;;;;;;7.00;4.70;;;;;;;4.92;76.37;99069.43;105130;1271;61035;-23
2022/02/10 18:25:45;;;;;;;6.50;4.70;;;;;;;4.78;76.65;99065.58;105008;1271;74325;-23
2022/02/10 18:28:56;;;;;;;7.40;4.80;;;;;;;4.44;77.63;99057.02;105000;1271;75763;-22
2022/02/10 18:34:15;;;;;;;6.60;4.50;;;;;;;4.53;78.14;99050.96;104811;1273;61154;-22
2022/02/10 18:38:11;;;;;;;6.70;4.20;;;;;;;4.90;76.90;99046.80;104902;1271;61073;-23
2022/02/10 19:07:19;;;;;;;6.70;4.80;;;;;;;4.78;77.64;99027.02;104948;1271;75395;-22
2022/02/10 19:09:50;;;;;;;7.80;4.90;;;;;;;5.21;75.97;99026.12;104984;1271;74985;-23
2022/02/10 19:12:30;;;;;;;6.60;4.90;;;;;;;5.13;75.63;99025.86;104835;1271;74519;-22
2022/02/10 19:15:10;;;;;;;4.40;3.20;;;;;;;4.93;76.06;99019.84;105048;1274;61149;-23
2022/02/10 19:17:40;;;;;;;8.60;6.00;;;;;;;4.67;76.76;99005.83;105020;1271;61545;-23
2022/02/10 19:20:09;;;;;;;5.00;3.90;;;;;;;4.41;77.86;99002.98;105144;1272;75786;-22
2022/02/10 19:22:38;;;;;;;5.80;3.90;;;;;;;4.67;78.06;98999.11;105042;1274;74210;-22
2022/02/10 19:25:08;;;;;;;7.00;4.60;;;;;;;5.04;76.87;99003.35;105167;1271;72890;-22
2022/02/10 19:27:40;;;;;;;7.70;5.00;;;;;;;5.18;76.31;99000.81;104755;1272;61147;-23
2022/02/10 19:30:10;;;;;;;5.50;4.00;;;;;;;5.06;76.42;99003.08;104638;1271;61092;-22
2022/02/10 19:32:42;;;;;;;5.50;3.70;;;;;;;4.81;77.13;98999.20;104808;1274;75699;-22
2022/02/10 19:35:14;;;;;;;2.90;2.30;;;;;;;4.57;78.04;98998.16;105136;1271;73600;-23
2022/02/10 19:37:44;;;;;;;4.60;3.30;;;;;;;4.81;77.99;98993.67;104880;1271;74404;-22
2022/02/10 19:40:13;;;;;;;7.40;4.00;;;;;;;5.17;76.57;98986.91;104743;1274;61065;-23
2022/02/10 19:42:46;;;;;;;5.60;3.90;;;;;;;5.18;76.23;98983.05;104874;1271;62324;-22
2022/02/10 19:45:14;;;;;;;5.80;4.00;;;;;;;5.00;76.67;98975.73;104746;1274;75760;-22
2022/02/10 19:47:42;;;;;;;5.90;4.30;;;;;;;4.83;77.06;98977.23;105067;1274;74725;-22
2022/02/10 19:50:14;;;;;;;6.50;4.00;;;;;;;4.60;77.82;98979.55;105161;1270;74583;-22
2022/02/10 19:52:47;;;;;;;5.10;3.60;;;;;;;4.65;78.28;98975.84;104976;1271;62868;-22
2022/02/10 19:55:22;;;;;;;4.50;3.50;;;;;;;5.21;76.59;98977.02;104823;1271;61036;-22
2022/02/10 19:57:55;;;;;;;5.40;3.70;;;;;;;5.39;75.55;98976.99;104745;1272;74587;-22
2022/02/10 20:00:29;;;;;;;4.70;3.90;;;;;;;5.28;75.39;98966.97;104790;1272;76151;-22
2022/02/10 20:02:59;;;;;;;4.90;3.90;;;;;;;5.07;75.79;98967.04;104839;1271;74365;-22
2022/02/10 20:05:28;;;;;;;5.50;3.80;;;;;;;4.85;76.26;98971.08;104756;1274;61236;-22
2022/02/10 20:07:57;;;;;;;5.50;4.00;;;;;;;4.63;76.69;98966.82;104878;1274;61388;-22
2022/02/10 20:10:26;;;;;;;4.70;3.30;;;;;;;4.52;77.10;98963.67;105124;1271;75568;-22
2022/02/10 20:12:54;;;;;;;6.40;4.20;;;;;;;5.01;76.49;98959.78;105111;1274;76308;-22
2022/02/10 20:15:23;;;;;;;6.10;3.60;;;;;;;5.46;74.77;98960.02;105120;1271;73539;-22
2022/02/10 20:17:55;;;;;;;6.90;4.40;;;;;;;5.46;74.10;98954.73;105126;1271;61128;-22
2022/02/10 20:20:23;;;;;;;6.50;3.60;;;;;;;5.26;74.45;98957.64;105128;1271;60949;-22
2022/02/10 20:22:53;;;;;;;7.60;4.60;;;;;;;4.90;75.37;98958.23;105037;1274;75328;-22
2022/02/10 20:25:42;;;;;;;3.60;2.80;;;;;;;4.59;76.43;98959.67;104958;1271;74776;-23
2022/02/10 20:28:12;;;;;;;3.20;2.80;;;;;;;4.38;77.59;98963.30;104944;1271;74416;-22
2022/02/10 20:30:40;;;;;;;6.00;4.20;;;;;;;4.66;77.01;98963.21;104794;1274;61179;-22
2022/02/10 20:33:09;;;;;;;5.40;3.90;;;;;;;4.81;76.56;98964.11;105066;1271;61010;-22
2022/02/10 20:35:44;;;;;;;6.00;3.80;;;;;;;4.60;76.96;98954.46;105147;1274;75490;-22
2022/02/10 20:38:16;;;;;;;6.90;3.60;;;;;;;4.51;76.89;98953.46;104946;1272;75054;-23
2022/02/10 20:40:46;;;;;;;5.40;3.80;;;;;;;4.26;77.23;98956.89;104820;1271;74376;-22
2022/02/10 20:43:17;;;;;;;6.10;4.20;;;;;;;4.12;78.02;98954.42;104776;1272;62601;-22
2022/02/10 20:45:53;;;;;;;3.70;3.00;;;;;;;4.56;76.69;98960.88;104766;1273;61074;-22
2022/02/10 20:48:22;;;;;;;6.20;4.10;;;;;;;4.52;75.92;98953.55;104883;1271;74607;-22
2022/02/10 20:50:56;;;;;;;4.10;3.20;;;;;;;4.54;75.57;98952.23;105154;1274;76246;-22
2022/02/10 20:53:25;;;;;;;5.70;4.10;;;;;;;4.34;75.74;98947.04;105090;1271;74575;-22
2022/02/10 20:55:55;;;;;;;7.20;4.50;;;;;;;4.22;75.89;98938.95;104809;1271;61083;-22
2022/02/10 20:58:25;;;;;;;5.80;3.40;;;;;;;4.08;76.09;98936.48;104838;1272;62004;-22
2022/02/10 21:00:57;;;;;;;2.90;2.00;;;;;;;4.48;75.01;98939.49;104807;1271;74495;-22
2022/02/10 21:03:28;;;;;;;5.60;2.90;;;;;;;4.90;73.48;98936.35;105100;1273;74874;-22
2022/02/10 21:06:15;;;;;;;4.90;3.90;;;;;;;4.88;72.75;98934.74;104831;1274;74231;-22
2022/02/10 21:08:53;;;;;;;6.80;3.30;;;;;;;4.67;72.92;98940.64;105087;1271;61306;-22
2022/02/10 21:11:26;;;;;;;3.90;2.70;;;;;;;4.36;73.65;98931.61;105018;1274;62289;-22
2022/02/10 21:13:58;;;;;;;4.90;2.50;;;;;;;4.08;74.80;98934.92;105107;1271;75541;-22
2022/02/10 21:16:27;;;;;;;4.40;3.30;;;;;;;3.95;75.63;98939.05;104930;1271;76119;-25
2022/02/10 21:18:57;;;;;;;5.10;3.60;;;;;;;4.37;74.25;98936.02;104871;1271;74413;-22
2022/02/10 21:21:27;;;;;;;6.70;4.30;;;;;;;4.60;73.28;98933.36;104849;1271;61249;-23
2022/02/10 21:24:01;;;;;;;5.10;3.20;;;;;;;4.59;73.03;98939.08;104835;1271;61045;-24
2022/02/10 21:26:35;;;;;;;3.80;3.00;;;;;;;4.36;73.22;98940.19;104719;1272;74729;-24
2022/02/10 21:29:07;;;;;;;3.00;2.60;;;;;;;4.11;73.85;98944.52;104773;1271;75972;-22
2022/02/10 21:31:43;;;;;;;5.50;2.60;;;;;;;3.77;74.98;98947.27;104891;1274;71549;-23
2022/02/10 21:34:17;;;;;;;5.70;3.40;;;;;;;4.03;74.67;98945.98;104955;1271;61020;-23
2022/02/10 21:36:59;;;;;;;4.60;3.30;;;;;;;4.50;72.88;98942.33;105144;1271;61131;-23
2022/02/10 21:48:11;;;;;;;5.20;2.80;;;;;;;3.99;72.84;98935.58;104866;1271;61074;-22
2022/02/10 21:56:36;;;;;;;3.80;3.00;;;;;;;4.74;70.88;98925.80;104667;1271;75841;-23
2022/02/10 22:10:02;;;;;;;4.10;2.60;;;;;;;3.79;73.00;98898.71;104795;1271;298857;-22
2022/02/10 22:20:29;;;;;;;4.60;3.10;;;;;;;4.35;71.25;98891.27;104918;1271;75552;-24
2022/02/10 22:23:06;;;;;;;4.10;3.20;;;;;;;4.00;72.34;98893.92;104861;1271;75967;-23
2022/02/10 22:25:36;;;;;;;6.90;4.10;;;;;;;3.75;72.95;98893.64;104610;1274;74299;-23
2022/02/10 22:28:14;;;;;;;6.20;3.60;;;;;;;3.61;73.64;98899.16;104796;1271;61144;-23
2022/02/10 22:30:50;;;;;;;4.60;3.10;;;;;;;3.83;73.55;98897.67;104770;1271;61294;-23
2022/02/10 22:33:44;;;;;;;5.20;3.70;;;;;;;4.39;71.67;98897.42;104757;1271;75610;-23
2022/02/10 22:36:09;;;;;;;5.00;3.00;;;;;;;4.52;71.01;98900.10;105114;1271;75961;-23
2022/02/10 22:38:38;;;;;;;6.50;3.30;;;;;;;4.33;71.16;98900.85;105120;1271;73474;-23
2022/02/10 22:41:11;;;;;;;6.20;4.00;;;;;;;4.07;71.45;98897.51;104976;1274;61057;-22
2022/02/10 22:43:40;;;;;;;7.80;4.70;;;;;;;3.83;72.22;98897.28;105150;1271;62113;-23
2022/02/10 22:46:11;;;;;;;5.30;3.80;;;;;;;3.71;72.66;98894.17;104863;1271;74275;-23
2022/02/10 22:48:41;;;;;;;11.40;3.90;;;;;;;3.60;72.87;98895.31;104944;1271;75178;-23
2022/02/10 22:51:11;;;;;;;4.80;3.90;;;;;;;3.61;73.05;98887.00;104908;1271;73902;-23
2022/02/10 22:53:39;;;;;;;4.90;3.40;;;;;;;4.28;71.71;98889.26;104763;1271;62052;-23
2022/02/10 22:56:09;;;;;;;5.90;3.40;;;;;;;4.68;70.27;98887.98;105040;1271;61228;-23
2022/02/10 22:58:39;;;;;;;5.10;3.40;;;;;;;4.61;69.85;98880.64;104903;1271;75569;-25
2022/02/10 23:01:11;;;;;;;6.30;3.80;;;;;;;4.34;70.04;98875.53;104952;1271;76059;-23
2022/02/10 23:03:40;;;;;;;6.80;3.90;;;;;;;4.15;70.82;98872.48;104803;1271;70608;-23
2022/02/10 23:06:20;;;;;;;7.90;3.60;;;;;;;3.89;71.32;98862.64;105075;1271;61410;-23
2022/02/10 23:08:50;;;;;;;5.40;2.80;;;;;;;3.66;72.00;98856.50;104864;1273;61164;-23
2022/02/10 23:11:26;;;;;;;3.80;2.40;;;;;;;3.49;72.61;98848.54;104940;1273;75114;-23
2022/02/10 23:13:57;;;;;;;5.20;3.20;;;;;;;3.69;72.56;98846.41;105039;1271;74940;-22
2022/02/10 23:16:26;;;;;;;5.20;2.70;;;;;;;4.08;71.46;98847.98;104868;1271;74506;-24
2022/02/10 23:18:55;;;;;;;4.30;3.30;;;;;;;4.06;71.09;98847.27;104844;1271;61147;-23
2022/02/10 23:21:26;;;;;;;5.10;3.40;;;;;;;3.96;71.16;98842.99;105019;1271;61121;-24
2022/02/10 23:23:55;;;;;;;4.80;3.30;;;;;;;3.80;71.63;98845.99;104899;1271;74485;-24
2022/02/10 23:26:25;;;;;;;5.80;4.20;;;;;;;3.60;72.17;98844.51;105085;1271;76042;-23
2022/02/10 23:28:55;;;;;;;6.80;3.80;;;;;;;3.46;72.54;98845.40;105071;1272;73386;-24
2022/02/10 23:31:24;;;;;;;6.40;4.10;;;;;;;3.58;72.95;98847.01;104693;1271;62870;-24
2022/02/10 23:33:59;;;;;;;6.00;3.40;;;;;;;4.12;71.61;98844.65;104729;1271;61051;-24
2022/02/10 23:42:01;;;;;;;4.40;2.90;;;;;;;3.83;71.34;98845.45;104270;1283;62165;-24
2022/02/10 23:44:37;;;;;;;5.60;3.80;;;;;;;3.67;71.56;98853.39;104249;1283;71249;-24
2022/02/10 23:47:07;;;;;;;5.80;3.10;;;;;;;3.55;72.15;98850.78;104396;1283;76199;-24
2022/02/10 23:49:37;;;;;;;5.50;3.40;;;;;;;3.43;72.48;98850.39;104119;1281;196591;-24
2022/02/10 23:52:07;;;;;;;6.80;4.10;;;;;;;3.86;71.87;98852.14;104516;1283;61265;-24
2022/02/10 23:54:38;;;;;;;4.10;2.70;;;;;;;4.24;70.21;98852.70;104539;1281;61048;-24
